createdAt,value
2019-02-14T00:02:04.528Z,95.10
2019-02-14T00:49:58.416Z,96.20
2019-02-14T00:52:26.796Z,96.20
2019-02-14T00:54:55.183Z,96.20
2019-02-14T00:57:23.567Z,96.20
2019-02-14T00:59:51.953Z,96.00
2019-02-14T01:02:20.339Z,95.80
2019-02-14T01:04:48.723Z,95.60
2019-02-14T01:07:17.119Z,95.50
2019-02-14T01:09:45.512Z,95.50
2019-02-14T01:12:14.059Z,95.40
2019-02-14T01:14:42.456Z,95.30
2019-02-14T01:17:10.832Z,95.30
2019-02-14T01:19:39.231Z,95.60
2019-02-14T01:22:07.609Z,95.80
2019-02-14T01:24:35.999Z,96.00
2019-02-14T01:27:04.384Z,96.30
2019-02-14T01:29:32.836Z,96.50
2019-02-14T01:32:01.224Z,96.50
2019-02-14T01:34:29.616Z,96.50
2019-02-14T01:36:58.008Z,96.70
2019-02-14T01:39:26.397Z,96.50
2019-02-14T01:41:54.768Z,97.00
2019-02-14T01:44:23.232Z,97.10
2019-02-14T01:46:51.801Z,97.30
2019-02-14T01:49:20.188Z,97.80
2019-02-14T01:51:48.571Z,97.90
2019-02-14T01:54:16.972Z,97.80
2019-02-14T01:56:45.369Z,97.60
2019-02-14T01:59:13.744Z,97.50
2019-02-14T02:01:42.142Z,97.40
2019-02-14T02:04:10.515Z,97.40
2019-02-14T02:06:38.907Z,97.40
2019-02-14T02:09:07.284Z,97.30
2019-02-14T02:11:35.659Z,97.30
2019-02-14T02:14:04.220Z,97.10
2019-02-14T02:16:32.605Z,97.10
2019-02-14T02:19:00.991Z,97.20
2019-02-14T02:21:29.372Z,97.30
2019-02-14T02:23:57.764Z,97.30
2019-02-14T02:26:26.150Z,97.30
2019-02-14T02:28:54.542Z,97.40
2019-02-14T02:31:22.935Z,97.30
2019-02-14T02:33:51.328Z,97.40
2019-02-14T02:36:19.721Z,97.80
2019-02-14T02:38:48.171Z,97.60
2019-02-14T02:41:16.569Z,97.50
2019-02-14T02:43:44.951Z,97.50
2019-02-14T02:46:13.345Z,97.00
2019-02-14T02:48:41.723Z,97.00
2019-02-14T02:51:10.133Z,96.90
2019-02-14T02:53:38.499Z,96.80
2019-02-14T02:56:06.891Z,96.80
2019-02-14T02:58:35.272Z,96.60
2019-02-14T03:01:03.655Z,96.50
2019-02-14T03:03:32.048Z,96.40
2019-02-14T03:06:08.613Z,96.40
2019-02-14T03:08:30.563Z,96.60
2019-02-14T03:10:59.022Z,96.70
2019-02-14T03:13:27.412Z,96.60
2019-02-14T03:15:55.800Z,96.70
2019-02-14T03:18:24.203Z,96.60
2019-02-14T03:20:52.580Z,96.60
2019-02-14T03:23:20.955Z,96.50
2019-02-14T03:25:49.344Z,96.40
2019-02-14T03:28:17.716Z,96.40
2019-02-14T03:30:46.115Z,96.30
2019-02-14T03:33:14.505Z,96.40
2019-02-14T03:35:42.900Z,96.40
2019-02-14T03:38:11.275Z,96.30
2019-02-14T03:40:39.662Z,96.50
2019-02-14T03:43:08.056Z,96.50
2019-02-14T03:45:36.447Z,96.60
2019-02-14T03:48:04.832Z,96.70
2019-02-14T03:50:33.223Z,96.70
2019-02-14T03:53:01.610Z,96.40
2019-02-14T03:55:30.043Z,96.20
2019-02-14T03:57:58.431Z,96.00
2019-02-14T04:00:26.811Z,96.10
2019-02-14T04:02:55.207Z,96.60
2019-02-14T04:05:23.592Z,97.00
2019-02-14T04:07:51.996Z,96.80
2019-02-14T04:10:20.380Z,96.70
2019-02-14T04:12:48.773Z,96.50
2019-02-14T04:15:18.204Z,96.70
2019-02-14T04:17:46.588Z,97.10
2019-02-14T04:20:14.971Z,97.20
2019-02-14T04:22:43.367Z,97.30
2019-02-14T04:25:11.755Z,97.40
2019-02-14T04:27:40.158Z,97.30
2019-02-14T04:30:12.892Z,97.30
2019-02-14T04:32:41.267Z,97.60
2019-02-14T04:35:09.805Z,98.00
2019-02-14T04:37:38.199Z,97.90
2019-02-14T04:40:09.595Z,98.50
2019-02-14T04:42:37.991Z,98.20
2019-02-14T04:45:07.911Z,97.80
2019-02-14T04:47:36.307Z,97.70
2019-02-14T04:50:06.632Z,97.60
2019-02-14T04:52:35.027Z,97.70
2019-02-14T04:55:04.083Z,97.50
2019-02-14T04:57:32.466Z,97.40
2019-02-14T05:00:00.864Z,97.10
2019-02-14T05:02:29.260Z,97.00
2019-02-14T05:04:57.647Z,97.00
2019-02-14T05:07:26.040Z,97.10
2019-02-14T05:09:54.421Z,97.10
2019-02-14T05:12:22.804Z,97.20
2019-02-14T05:14:51.204Z,97.30
2019-02-14T05:17:19.591Z,97.10
2019-02-14T05:19:47.988Z,96.90
2019-02-14T05:22:16.371Z,96.90
2019-02-14T05:24:44.763Z,96.80
2019-02-14T05:27:13.140Z,96.90
2019-02-14T05:29:41.534Z,97.00
2019-02-14T05:32:09.913Z,96.90
2019-02-14T05:34:38.304Z,97.00
2019-02-14T05:37:06.685Z,96.80
2019-02-14T05:39:35.076Z,96.50
2019-02-14T05:42:03.455Z,96.40
2019-02-14T05:44:31.856Z,96.20
2019-02-14T05:47:00.232Z,95.80
2019-02-14T05:49:28.631Z,95.80
2019-02-14T05:51:57.012Z,95.80
2019-02-14T05:54:25.403Z,96.40
2019-02-14T05:56:53.780Z,96.90
2019-02-14T05:59:22.168Z,96.60
2019-02-14T06:01:50.547Z,96.40
2019-02-14T06:04:18.923Z,96.40
2019-02-14T06:06:47.311Z,96.30
2019-02-14T06:09:15.695Z,96.20
2019-02-14T06:11:44.092Z,96.10
2019-02-14T06:14:12.483Z,96.30
2019-02-14T06:16:40.932Z,96.50
2019-02-14T06:19:09.326Z,96.70
2019-02-14T06:21:37.703Z,96.90
2019-02-14T06:24:06.091Z,96.70
2019-02-14T06:26:34.475Z,96.40
2019-02-14T06:29:02.875Z,96.30
2019-02-14T06:31:31.255Z,96.20
2019-02-14T06:33:59.639Z,96.20
2019-02-14T06:36:28.043Z,96.30
2019-02-14T06:38:56.407Z,96.40
2019-02-14T06:41:24.783Z,96.50
2019-02-14T06:43:53.172Z,96.50
2019-02-14T06:46:21.555Z,96.60
2019-02-14T06:49:09.285Z,96.60
2019-02-14T06:51:37.676Z,96.60
2019-02-14T06:54:06.051Z,96.80
2019-02-14T06:56:34.437Z,96.70
2019-02-14T06:59:02.836Z,96.50
2019-02-14T07:01:31.215Z,96.50
2019-02-14T07:03:59.603Z,96.30
2019-02-14T07:06:30.685Z,96.20
2019-02-14T07:08:59.083Z,96.10
2019-02-14T07:11:27.460Z,95.70
2019-02-14T07:13:55.843Z,95.40
2019-02-14T07:16:24.236Z,95.20
2019-02-14T07:18:52.622Z,95.10
2019-02-14T07:21:21.803Z,95.10
2019-02-14T07:23:50.367Z,95.30
2019-02-14T07:26:18.759Z,94.90
2019-02-14T07:28:49.418Z,94.50
2019-02-14T07:31:18.135Z,94.10
2019-02-14T07:33:46.520Z,94.10
2019-02-14T07:36:14.912Z,94.20
2019-02-14T07:38:43.283Z,94.00
2019-02-14T07:41:11.671Z,94.00
2019-02-14T07:43:40.271Z,93.90
2019-02-14T07:46:08.662Z,93.50
2019-02-14T07:48:37.036Z,93.50
2019-02-14T07:51:05.411Z,93.40
2019-02-14T07:53:33.795Z,93.50
2019-02-14T07:56:02.184Z,93.40
2019-02-14T07:58:30.588Z,93.60
2019-02-14T08:00:58.963Z,93.60
2019-02-14T08:03:27.356Z,93.60
2019-02-14T08:05:55.736Z,93.50
2019-02-14T08:08:24.114Z,91.40
2019-02-14T08:10:52.504Z,87.40
2019-02-14T08:13:20.883Z,82.00
2019-02-14T08:15:49.264Z,77.20
2019-02-14T08:18:17.655Z,73.90
2019-02-14T08:20:46.038Z,70.60
2019-02-14T08:23:14.640Z,69.20
2019-02-14T08:25:43.036Z,67.90
2019-02-14T08:28:11.416Z,67.90
2019-02-14T08:30:39.791Z,67.90
2019-02-14T08:33:08.179Z,67.90
2019-02-14T08:35:36.572Z,66.90
2019-02-14T08:38:05.095Z,65.10
2019-02-14T08:40:33.823Z,62.90
2019-02-14T08:43:02.216Z,61.80
2019-02-14T08:45:31.079Z,59.10
2019-02-14T08:47:59.472Z,57.30
2019-02-14T08:50:27.853Z,56.90
2019-02-14T08:52:56.244Z,57.40
2019-02-14T08:55:24.624Z,58.40
2019-02-14T08:57:53.016Z,58.10
2019-02-14T09:00:21.397Z,58.80
2019-02-14T09:02:49.790Z,58.70
2019-02-14T09:05:18.164Z,58.90
2019-02-14T09:07:54.231Z,58.20
2019-02-14T09:10:17.200Z,57.40
2019-02-14T09:12:45.576Z,55.90
2019-02-14T09:15:14.991Z,55.00
2019-02-14T09:17:43.377Z,54.80
2019-02-14T09:20:16.591Z,53.70
2019-02-14T09:22:44.973Z,51.30
2019-02-14T09:25:13.443Z,50.90
2019-02-14T09:27:41.814Z,48.70
2019-02-14T09:30:14.711Z,49.60
2019-02-14T09:32:43.160Z,48.70
2019-02-14T09:35:11.623Z,48.20
2019-02-14T09:37:40.000Z,46.60
2019-02-14T09:40:11.499Z,46.30
2019-02-14T09:42:39.875Z,46.60
2019-02-14T09:45:10.926Z,45.10
2019-02-14T09:47:39.366Z,47.20
2019-02-14T09:50:12.757Z,45.70
2019-02-14T09:52:41.714Z,44.80
2019-02-14T09:55:12.242Z,44.70
2019-02-14T09:57:40.637Z,43.00
2019-02-14T10:00:14.183Z,42.40
2019-02-14T10:02:42.581Z,42.30
2019-02-14T10:05:11.296Z,41.30
2019-02-14T10:07:39.684Z,41.10
2019-02-14T10:10:13.714Z,40.50
2019-02-14T10:12:42.083Z,39.60
2019-02-14T10:15:11.096Z,38.60
2019-02-14T10:17:39.479Z,39.70
2019-02-14T10:20:13.320Z,39.60
2019-02-14T10:22:41.703Z,38.80
2019-02-14T10:25:10.841Z,37.60
2019-02-14T10:27:39.216Z,37.10
2019-02-14T10:30:18.927Z,36.50
2019-02-14T10:32:47.300Z,36.60
2019-02-14T10:35:15.744Z,37.70
2019-02-14T10:37:44.379Z,37.70
2019-02-14T10:40:17.048Z,36.70
2019-02-14T10:42:45.449Z,35.50
2019-02-14T10:45:21.480Z,34.90
2019-02-14T10:47:49.868Z,34.00
2019-02-14T10:50:18.243Z,33.90
2019-02-14T10:52:46.631Z,33.30
2019-02-14T10:55:16.056Z,33.00
2019-02-14T10:57:44.515Z,33.00
2019-02-14T11:00:19.368Z,32.90
2019-02-14T11:02:48.034Z,31.50
2019-02-14T11:05:17.355Z,31.90
2019-02-14T11:07:45.729Z,31.80
2019-02-14T11:10:14.959Z,30.90
2019-02-14T11:12:43.331Z,30.60
2019-02-14T11:15:17.096Z,29.70
2019-02-14T11:17:45.494Z,29.90
2019-02-14T11:20:14.816Z,29.90
2019-02-14T11:22:43.212Z,32.00
2019-02-14T11:25:23.220Z,33.50
2019-02-14T11:27:51.622Z,34.00
2019-02-14T11:30:19.997Z,34.40
2019-02-14T11:32:48.383Z,35.70
2019-02-14T11:35:16.831Z,36.20
2019-02-14T11:37:45.224Z,35.60
2019-02-14T11:40:14.448Z,33.60
2019-02-14T11:42:42.837Z,34.70
2019-02-14T11:45:16.728Z,33.10
2019-02-14T11:47:45.112Z,31.40
2019-02-14T11:50:13.581Z,30.40
2019-02-14T11:52:41.956Z,28.40
2019-02-14T11:55:11.584Z,28.10
2019-02-14T11:57:39.963Z,28.60
2019-02-14T12:00:24.265Z,27.90
2019-02-14T12:02:55.462Z,27.90
2019-02-14T12:05:22.771Z,27.10
2019-02-14T12:07:51.153Z,26.40
2019-02-14T12:10:19.541Z,24.20
2019-02-14T12:12:47.936Z,24.10
2019-02-14T12:15:16.312Z,23.70
2019-02-14T12:17:44.703Z,23.50
2019-02-14T12:20:14.724Z,24.80
2019-02-14T12:22:46.830Z,24.50
2019-02-14T12:25:21.916Z,24.60
2019-02-14T12:27:50.424Z,23.70
2019-02-14T12:30:18.809Z,23.20
2019-02-14T12:32:47.190Z,23.90
2019-02-14T12:35:15.577Z,23.40
2019-02-14T12:37:43.956Z,24.30
2019-02-14T12:40:13.585Z,24.10
2019-02-14T12:42:41.963Z,24.00
2019-02-14T12:45:20.457Z,23.30
2019-02-14T12:47:46.356Z,24.10
2019-02-14T12:50:14.734Z,23.80
2019-02-14T12:52:43.129Z,24.90
2019-02-14T12:55:11.516Z,24.30
2019-02-14T12:57:39.907Z,24.60
2019-02-14T13:00:11.535Z,24.50
2019-02-14T13:02:39.940Z,24.40
2019-02-14T13:05:09.135Z,24.30
2019-02-14T13:07:37.520Z,23.30
2019-02-14T13:10:09.300Z,23.40
2019-02-14T13:12:37.696Z,24.30
2019-02-14T13:15:09.151Z,24.20
2019-02-14T13:17:37.521Z,23.50
2019-02-14T13:20:07.552Z,23.40
2019-02-14T13:22:35.932Z,23.00
2019-02-14T13:25:06.811Z,23.30
2019-02-14T13:27:35.208Z,23.20
2019-02-14T13:30:04.644Z,23.80
2019-02-14T13:32:33.020Z,24.10
2019-02-14T13:35:01.403Z,23.00
2019-02-14T13:37:29.799Z,22.80
2019-02-14T13:39:58.179Z,22.50
2019-02-14T13:42:26.574Z,20.90
2019-02-14T13:44:54.963Z,20.70
2019-02-14T13:47:23.329Z,20.30
2019-02-14T13:49:51.728Z,20.10
2019-02-14T13:52:20.168Z,21.50
2019-02-14T13:54:48.562Z,21.00
2019-02-14T13:57:16.945Z,20.10
2019-02-14T13:59:45.335Z,19.90
2019-02-14T14:02:13.720Z,19.40
2019-02-14T14:04:42.116Z,18.40
2019-02-14T14:07:10.497Z,18.30
2019-02-14T14:09:39.091Z,19.10
2019-02-14T14:12:07.552Z,19.00
2019-02-14T14:14:35.933Z,19.20
2019-02-14T14:17:04.316Z,19.70
2019-02-14T14:19:32.726Z,19.10
2019-02-14T14:22:01.102Z,19.60
2019-02-14T14:24:29.480Z,19.80
2019-02-14T14:26:57.860Z,20.10
2019-02-14T14:29:26.244Z,20.90
2019-02-14T14:31:54.642Z,21.80
2019-02-14T14:34:23.032Z,22.50
2019-02-14T14:36:51.426Z,20.30
2019-02-14T14:39:19.807Z,20.80
2019-02-14T14:41:48.195Z,22.70
2019-02-14T14:44:18.217Z,25.20
2019-02-14T14:46:46.676Z,25.90
2019-02-14T14:49:15.055Z,26.70
2019-02-14T14:51:43.444Z,27.40
2019-02-14T14:54:11.832Z,27.80
2019-02-14T14:56:40.219Z,27.50
2019-02-14T14:59:09.458Z,26.90
2019-02-14T15:01:37.822Z,27.30
2019-02-14T15:04:06.208Z,27.40
2019-02-14T15:06:34.591Z,27.70
2019-02-14T15:09:03.152Z,27.60
2019-02-14T15:11:31.528Z,27.20
2019-02-14T15:13:59.992Z,28.30
2019-02-14T15:16:28.387Z,29.00
2019-02-14T15:18:56.764Z,29.80
2019-02-14T15:21:25.162Z,30.20
2019-02-14T15:23:53.535Z,30.00
2019-02-14T15:26:21.938Z,29.90
2019-02-14T15:28:50.316Z,30.20
2019-02-14T15:31:18.698Z,30.30
2019-02-14T15:33:47.080Z,30.60
2019-02-14T15:36:15.473Z,31.00
2019-02-14T15:38:43.861Z,30.20
2019-02-14T15:41:12.243Z,30.80
2019-02-14T15:43:40.623Z,32.40
2019-02-14T15:46:09.025Z,33.10
2019-02-14T15:48:37.395Z,34.90
2019-02-14T15:51:05.777Z,36.10
2019-02-14T15:53:34.184Z,37.00
2019-02-14T15:56:03.349Z,37.80
2019-02-14T15:58:33.175Z,39.80
2019-02-14T16:01:01.644Z,42.00
2019-02-14T16:03:30.031Z,44.20
2019-02-14T16:05:58.426Z,46.60
2019-02-14T16:08:26.823Z,48.60
2019-02-14T16:10:55.907Z,50.40
2019-02-14T16:13:24.363Z,52.30
2019-02-14T16:15:53.897Z,52.70
2019-02-14T16:18:23.671Z,52.30
2019-02-14T16:20:52.975Z,52.30
2019-02-14T16:23:21.369Z,52.20
2019-02-14T16:25:51.685Z,52.70
2019-02-14T16:28:19.855Z,52.80
2019-02-14T16:30:48.244Z,53.30
2019-02-14T16:33:16.624Z,54.30
2019-02-14T16:35:45.023Z,54.40
2019-02-14T16:38:14.046Z,54.10
2019-02-14T16:40:42.555Z,53.90
2019-02-14T16:43:10.950Z,54.80
2019-02-14T16:45:39.331Z,55.30
2019-02-14T16:48:07.712Z,57.10
2019-02-14T16:50:36.096Z,57.90
2019-02-14T16:53:04.507Z,59.30
2019-02-14T16:55:32.904Z,61.40
2019-02-14T16:58:01.295Z,63.20
2019-02-14T17:00:29.676Z,65.40
2019-02-14T17:02:58.067Z,66.80
2019-02-14T17:05:26.451Z,67.30
2019-02-14T17:07:56.130Z,68.20
2019-02-14T17:10:24.800Z,69.10
2019-02-14T17:12:53.171Z,70.10
2019-02-14T17:15:21.555Z,71.10
2019-02-14T17:17:49.935Z,72.40
2019-02-14T17:20:18.316Z,72.70
2019-02-14T17:22:46.699Z,73.80
2019-02-14T17:25:17.125Z,73.50
2019-02-14T17:27:45.196Z,72.80
2019-02-14T17:30:13.583Z,72.30
2019-02-14T17:32:41.965Z,71.40
2019-02-14T17:35:10.349Z,71.40
2019-02-14T17:37:38.731Z,71.40
2019-02-14T17:40:09.355Z,71.80
2019-02-14T17:42:37.754Z,72.40
2019-02-14T17:45:08.898Z,72.20
2019-02-14T17:47:37.275Z,71.80
2019-02-14T17:50:06.300Z,71.50
2019-02-14T17:52:34.692Z,71.20
2019-02-14T17:55:03.141Z,71.50
2019-02-14T17:57:31.515Z,71.30
2019-02-14T17:59:59.905Z,70.90
2019-02-14T18:02:28.734Z,70.40
2019-02-14T18:04:57.261Z,70.40
2019-02-14T18:07:25.646Z,70.90
2019-02-14T18:09:54.033Z,70.50
2019-02-14T18:12:22.420Z,70.00
2019-02-14T18:14:50.791Z,69.70
2019-02-14T18:17:19.159Z,69.40
2019-02-14T18:19:47.548Z,68.40
2019-02-14T18:22:35.265Z,67.20
2019-02-14T18:25:06.402Z,65.60
2019-02-14T18:27:34.786Z,64.40
2019-02-14T18:30:03.995Z,63.50
2019-02-14T18:32:32.385Z,62.10
2019-02-14T18:35:00.760Z,61.50
2019-02-14T18:37:29.153Z,61.20
2019-02-14T18:39:57.528Z,61.70
2019-02-14T18:42:25.916Z,61.10
2019-02-14T18:44:54.304Z,60.10
2019-02-14T18:47:22.679Z,60.30
2019-02-14T18:49:51.347Z,59.50
2019-02-14T18:52:19.707Z,58.80
2019-02-14T18:54:48.103Z,58.40
2019-02-14T18:57:16.478Z,58.60
2019-02-14T18:59:44.849Z,58.30
2019-02-14T19:02:13.236Z,57.90
2019-02-14T19:04:41.623Z,57.80
2019-02-14T19:07:10.091Z,57.90
2019-02-14T19:09:38.521Z,57.70
2019-02-14T19:12:07.479Z,58.00
2019-02-14T19:14:35.862Z,57.80
2019-02-14T19:17:04.306Z,58.00
2019-02-14T19:19:32.691Z,57.20
2019-02-14T19:22:01.075Z,57.50
2019-02-14T19:24:29.464Z,57.60
2019-02-14T19:26:57.849Z,58.00
2019-02-14T19:29:26.224Z,59.00
2019-02-14T19:31:54.603Z,59.60
2019-02-14T19:34:22.980Z,59.50
2019-02-14T19:36:51.372Z,59.40
2019-02-14T19:39:19.760Z,59.00
2019-02-14T19:41:48.402Z,58.60
2019-02-14T19:44:16.783Z,58.20
2019-02-14T19:46:45.167Z,58.00
2019-02-14T19:49:13.536Z,57.30
2019-02-14T19:51:41.909Z,57.70
2019-02-14T19:54:10.300Z,58.10
2019-02-14T19:56:38.680Z,58.80
2019-02-14T19:59:07.988Z,58.90
2019-02-14T20:01:36.425Z,58.40
2019-02-14T20:04:04.798Z,58.30
2019-02-14T20:06:33.171Z,58.70
2019-02-14T20:09:01.570Z,58.00
2019-02-14T20:11:36.801Z,58.60
2019-02-14T20:14:00.060Z,59.70
2019-02-14T20:16:28.427Z,60.00
2019-02-14T20:18:56.799Z,60.00
2019-02-14T20:21:25.191Z,59.90
2019-02-14T20:23:53.566Z,60.20
2019-02-14T20:26:21.944Z,60.50
2019-02-14T20:28:50.344Z,60.30
2019-02-14T20:31:19.028Z,61.60
2019-02-14T20:33:47.408Z,61.20
2019-02-14T20:36:15.792Z,62.10
2019-02-14T20:38:44.180Z,62.40
2019-02-14T20:41:12.632Z,62.50
2019-02-14T20:43:41.020Z,62.80
2019-02-14T20:46:09.393Z,63.40
2019-02-14T20:48:37.769Z,64.50
2019-02-14T20:51:06.177Z,65.70
2019-02-14T20:53:34.537Z,66.70
2019-02-14T20:56:03.209Z,67.70
2019-02-14T20:58:31.574Z,68.60
2019-02-14T21:01:00.323Z,69.70
2019-02-14T21:03:28.708Z,70.70
2019-02-14T21:05:57.085Z,71.70
2019-02-14T21:08:25.467Z,73.30
2019-02-14T21:11:13.196Z,74.90
2019-02-14T21:13:41.571Z,76.10
2019-02-14T21:16:09.986Z,76.90
2019-02-14T21:18:38.368Z,76.90
2019-02-14T21:21:06.741Z,77.00
2019-02-14T21:23:35.138Z,77.40
2019-02-14T21:26:03.498Z,77.50
2019-02-14T21:28:31.957Z,78.80
2019-02-14T21:31:00.336Z,80.20
2019-02-14T21:33:28.732Z,80.50
2019-02-14T21:35:57.106Z,80.30
2019-02-14T21:38:25.499Z,80.20
2019-02-14T21:40:53.879Z,79.90
2019-02-14T21:43:22.275Z,79.80
2019-02-14T21:45:50.651Z,79.60
2019-02-14T21:48:19.025Z,79.40
2019-02-14T21:50:47.408Z,78.80
2019-02-14T21:53:16.063Z,78.40
2019-02-14T21:55:44.461Z,77.80
2019-02-14T21:58:13.256Z,77.80
2019-02-14T22:00:41.663Z,78.00
2019-02-14T22:03:10.056Z,78.30
2019-02-14T22:05:38.696Z,78.60
2019-02-14T22:08:07.381Z,78.80
2019-02-14T22:10:36.517Z,78.00
2019-02-14T22:13:04.901Z,77.20
2019-02-14T22:15:33.275Z,76.80
2019-02-14T22:18:01.907Z,77.60
2019-02-14T22:20:30.284Z,78.30
2019-02-14T22:22:58.659Z,78.80
2019-02-14T22:25:27.041Z,79.00
2019-02-14T22:27:55.428Z,78.90
2019-02-14T22:30:23.819Z,79.80
2019-02-14T22:32:52.196Z,80.30
2019-02-14T22:35:20.576Z,80.10
2019-02-14T22:37:48.960Z,79.60
2019-02-14T22:40:17.349Z,79.00
2019-02-14T22:42:47.536Z,78.50
2019-02-14T22:45:15.897Z,78.00
2019-02-14T22:47:44.836Z,78.10
2019-02-14T22:50:14.071Z,78.80
2019-02-14T22:52:42.534Z,79.60
2019-02-14T22:55:12.357Z,80.30
2019-02-14T22:57:40.916Z,80.20
2019-02-14T23:00:28.920Z,80.90
2019-02-14T23:02:57.304Z,81.40
2019-02-14T23:05:25.746Z,82.70
2019-02-14T23:07:54.123Z,83.00
2019-02-14T23:10:22.507Z,84.80
2019-02-14T23:12:55.642Z,84.60
2019-02-14T23:15:21.077Z,84.10
2019-02-14T23:17:49.465Z,83.70
2019-02-14T23:20:17.831Z,83.30
2019-02-14T23:22:46.215Z,83.10
2019-02-14T23:25:14.594Z,82.40
2019-02-14T23:27:42.967Z,82.00
2019-02-14T23:30:12.298Z,81.60
2019-02-14T23:32:40.664Z,81.10
2019-02-14T23:35:09.051Z,81.00
2019-02-14T23:37:37.428Z,81.00
2019-02-14T23:40:06.952Z,81.40
2019-02-14T23:42:35.327Z,81.30
2019-02-14T23:45:04.554Z,81.90
2019-02-14T23:47:32.928Z,82.30
2019-02-14T23:50:01.318Z,81.40
2019-02-14T23:52:29.687Z,80.70
2019-02-14T23:54:58.063Z,80.10
2019-02-14T23:57:26.453Z,79.50
2019-02-14T23:59:54.844Z,79.60
